Time;durP1;ratioP1;P1;durP2;ratioP2;P2;SDS_P1;SDS_P2;PMS_P1;PMS_P2;Temp;Humidity;BMP_temperature;BMP_pressure;BME280_temperature;BME280_humidity;BME280_pressure;Samples;Min_cycle;Max_cycle;Signal;HPM_P1;HPM_P2
2021/07/13 00:01:14;;;;;;;11.18;10.15;;;22.50;99.90;;;;;;5070603;28;20288;-73
2021/07/13 00:03:40;;;;;;;9.88;9.20;;;22.50;99.90;;;;;;5070630;28;20211;-73
2021/07/13 00:06:07;;;;;;;10.05;9.35;;;22.50;99.90;;;;;;5070302;28;20215;-73
2021/07/13 00:08:34;;;;;;;9.88;9.18;;;22.50;99.90;;;;;;5070236;28;20242;-73
2021/07/13 00:11:01;;;;;;;10.75;9.95;;;22.50;99.90;;;;;;5070315;28;20223;-73
2021/07/13 00:13:27;;;;;;;10.38;9.35;;;22.50;99.90;;;;;;5070465;28;20203;-73
2021/07/13 00:15:54;;;;;;;10.23;9.52;;;22.40;99.90;;;;;;5069979;28;20624;-73
2021/07/13 00:18:22;;;;;;;9.50;8.80;;;22.40;99.90;;;;;;5070274;28;20243;-73
2021/07/13 00:20:49;;;;;;;10.43;9.73;;;22.40;99.90;;;;;;5070000;28;20253;-73
2021/07/13 00:23:15;;;;;;;12.82;9.98;;;22.40;99.90;;;;;;5070134;28;20226;-73
2021/07/13 00:25:42;;;;;;;10.77;9.90;;;22.40;99.90;;;;;;5070270;28;20203;-73
2021/07/13 00:28:09;;;;;;;11.13;10.23;;;22.30;99.90;;;;;;5069811;28;20304;-73
2021/07/13 00:30:36;;;;;;;10.57;9.77;;;22.30;99.90;;;;;;5069768;28;20251;-73
2021/07/13 00:33:02;;;;;;;11.25;10.32;;;22.30;99.90;;;;;;5069723;28;20207;-73
2021/07/13 00:35:30;;;;;;;11.00;10.10;;;22.30;99.90;;;;;;5069846;28;20246;-73
2021/07/13 00:37:57;;;;;;;11.68;10.68;;;22.30;99.90;;;;;;5069864;28;20207;-73
2021/07/13 00:40:24;;;;;;;11.18;10.38;;;22.30;99.90;;;;;;5069824;28;20279;-73
2021/07/13 00:42:52;;;;;;;11.48;10.38;;;22.30;99.90;;;;;;5069553;28;20203;-74
2021/07/13 00:45:19;;;;;;;10.95;10.05;;;22.20;99.90;;;;;;5069714;28;20227;-74
2021/07/13 00:47:48;;;;;;;10.30;9.60;;;22.20;99.90;;;;;;5069669;28;20214;-74
2021/07/13 00:50:16;;;;;;;11.90;11.00;;;22.20;99.90;;;;;;5069345;28;20238;-72
2021/07/13 00:52:44;;;;;;;10.93;9.93;;;22.20;99.90;;;;;;5069381;28;20662;-73
2021/07/13 00:55:12;;;;;;;11.15;10.35;;;22.20;99.90;;;;;;5069322;28;20280;-72
2021/07/13 00:57:38;;;;;;;10.95;10.05;;;22.20;99.90;;;;;;5069540;28;20302;-74
2021/07/13 01:00:07;;;;;;;10.27;9.48;;;22.10;99.90;;;;;;5068490;28;20207;-74
2021/07/13 01:02:34;;;;;;;9.80;9.10;;;22.10;99.90;;;;;;5069494;28;20203;-74
2021/07/13 01:05:03;;;;;;;10.18;9.48;;;22.10;99.90;;;;;;5068994;28;20200;-74
2021/07/13 01:07:38;;;;;;;11.30;10.30;;;22.10;99.90;;;;;;5069189;28;20685;-73
2021/07/13 01:10:13;;;;;;;11.15;10.35;;;22.10;99.90;;;;;;5068620;28;20242;-73
2021/07/13 01:12:50;;;;;;;10.60;9.80;;;22.00;99.90;;;;;;5069349;28;20191;-73
2021/07/13 01:15:20;;;;;;;10.27;9.52;;;22.00;99.90;;;;;;5053940;28;20265;-73
2021/07/13 01:17:52;;;;;;;10.52;9.73;;;22.10;99.90;;;;;;5049117;28;20200;-73
2021/07/13 01:20:43;;;;;;;10.57;9.87;;;22.00;99.90;;;;;;5049203;28;20610;-73
2021/07/13 01:23:18;;;;;;;11.32;10.43;;;22.00;99.90;;;;;;5048862;28;20236;-75
2021/07/13 01:25:55;;;;;;;11.07;10.17;;;22.00;99.90;;;;;;5048880;28;20245;-75
2021/07/13 01:28:26;;;;;;;11.03;10.13;;;22.00;99.90;;;;;;5048766;28;20572;-74
2021/07/13 01:30:58;;;;;;;11.10;10.07;;;22.00;99.90;;;;;;5048679;28;20269;-75
2021/07/13 01:33:27;;;;;;;11.52;10.70;;;21.90;99.90;;;;;;5048902;28;20196;-74
2021/07/13 01:35:58;;;;;;;10.77;9.87;;;21.90;99.90;;;;;;5048729;28;20210;-74
2021/07/13 01:38:27;;;;;;;10.77;9.87;;;21.90;99.90;;;;;;5048914;28;20212;-74
2021/07/13 01:40:59;;;;;;;10.77;9.97;;;21.90;99.90;;;;;;5048673;28;20212;-74
2021/07/13 01:43:28;;;;;;;11.47;10.33;;;21.90;99.90;;;;;;5048715;28;20232;-74
2021/07/13 01:45:56;;;;;;;11.23;10.32;;;21.80;99.90;;;;;;5048459;28;20228;-74
2021/07/13 01:48:25;;;;;;;12.03;10.87;;;21.80;99.90;;;;;;5048336;28;20698;-73
2021/07/13 01:50:54;;;;;;;10.88;10.13;;;21.80;99.90;;;;;;5048471;28;20201;-73
2021/07/13 01:53:23;;;;;;;11.33;10.50;;;21.70;99.90;;;;;;5048426;28;20736;-74
2021/07/13 01:55:50;;;;;;;12.13;11.18;;;21.70;99.90;;;;;;5048691;28;20262;-73
2021/07/13 01:58:18;;;;;;;11.73;10.65;;;21.70;99.90;;;;;;5048565;28;20258;-74
2021/07/13 02:00:46;;;;;;;11.40;10.57;;;21.70;99.90;;;;;;5048658;28;20222;-74
2021/07/13 02:03:14;;;;;;;11.38;10.48;;;21.60;99.90;;;;;;5048434;28;20258;-73
2021/07/13 02:05:42;;;;;;;12.03;11.10;;;21.70;99.90;;;;;;5048533;28;20200;-73
2021/07/13 02:08:10;;;;;;;11.40;10.37;;;21.60;99.90;;;;;;5047753;28;20698;-74
2021/07/13 02:10:37;;;;;;;11.50;10.60;;;21.70;99.90;;;;;;5047718;28;20998;-74
2021/07/13 02:13:06;;;;;;;11.87;10.87;;;21.70;99.90;;;;;;5047741;28;20226;-73
2021/07/13 02:15:33;;;;;;;11.97;10.97;;;21.60;99.90;;;;;;5048412;28;20212;-74
2021/07/13 02:18:01;;;;;;;12.80;11.70;;;21.70;99.90;;;;;;5048229;28;20204;-74
2021/07/13 02:20:27;;;;;;;11.98;10.98;;;21.60;99.90;;;;;;5048123;28;20739;-74
2021/07/13 02:22:54;;;;;;;11.93;10.93;;;21.60;99.90;;;;;;5048044;28;20208;-74
2021/07/13 02:25:22;;;;;;;12.10;10.87;;;21.60;99.90;;;;;;5048540;28;20265;-74
2021/07/13 02:27:55;;;;;;;12.57;11.55;;;21.60;99.90;;;;;;5048109;28;20208;-73
2021/07/13 02:30:23;;;;;;;11.90;11.00;;;21.50;99.90;;;;;;5047888;28;20309;-73
2021/07/13 02:32:54;;;;;;;13.27;11.95;;;21.50;99.90;;;;;;5048201;28;20261;-73
2021/07/13 02:35:31;;;;;;;12.07;11.00;;;21.50;99.90;;;;;;5048036;28;20196;-72
2021/07/13 02:37:58;;;;;;;11.60;10.70;;;21.50;99.90;;;;;;5065550;28;20214;-74
2021/07/13 02:40:25;;;;;;;11.87;10.87;;;21.50;99.90;;;;;;5067861;28;20248;-73
2021/07/13 02:42:51;;;;;;;11.93;10.97;;;21.50;99.90;;;;;;5068038;28;20242;-74
2021/07/13 02:45:19;;;;;;;11.87;10.97;;;21.50;99.90;;;;;;5067299;28;20223;-73
2021/07/13 02:47:48;;;;;;;11.87;10.87;;;21.50;99.90;;;;;;5067447;28;20199;-73
2021/07/13 02:50:16;;;;;;;12.73;11.65;;;21.50;99.90;;;;;;5054162;28;20295;-74
2021/07/13 02:52:45;;;;;;;12.77;11.67;;;21.50;99.90;;;;;;5045532;28;20666;-73
2021/07/13 02:55:16;;;;;;;12.00;11.10;;;21.40;99.90;;;;;;5045605;28;20281;-73
2021/07/13 02:57:44;;;;;;;11.80;10.97;;;21.40;99.90;;;;;;5046140;28;20390;-73
2021/07/13 03:00:13;;;;;;;12.50;11.50;;;21.40;99.90;;;;;;5052350;28;20196;-75
2021/07/13 03:02:43;;;;;;;13.07;11.90;;;21.40;99.90;;;;;;5066074;28;20249;-75
2021/07/13 03:05:12;;;;;;;12.80;11.80;;;21.40;99.90;;;;;;5065929;28;20372;-75
2021/07/13 03:07:39;;;;;;;12.80;11.60;;;21.40;99.90;;;;;;5065708;28;20634;-75
2021/07/13 03:10:09;;;;;;;12.30;11.30;;;21.40;99.90;;;;;;5065153;28;20335;-75
2021/07/13 03:12:36;;;;;;;12.23;11.23;;;21.40;99.90;;;;;;5064818;28;21020;-75
2021/07/13 03:15:05;;;;;;;12.27;11.17;;;21.40;99.90;;;;;;5065067;28;20215;-75
2021/07/13 03:17:32;;;;;;;12.33;11.23;;;21.30;99.90;;;;;;5064582;28;20376;-75
2021/07/13 03:19:59;;;;;;;12.30;11.20;;;21.30;99.90;;;;;;5065426;28;20273;-74
2021/07/13 03:22:30;;;;;;;12.00;10.90;;;21.30;99.90;;;;;;5064884;28;20231;-75
2021/07/13 03:24:59;;;;;;;12.63;11.33;;;21.30;99.90;;;;;;5067386;28;20699;-73
2021/07/13 03:27:30;;;;;;;12.13;11.13;;;21.30;99.90;;;;;;5068847;28;20211;-73
2021/07/13 03:29:57;;;;;;;12.93;11.90;;;21.30;99.90;;;;;;5069288;28;20272;-73
2021/07/13 03:32:25;;;;;;;12.60;11.40;;;21.30;99.90;;;;;;5069567;28;20644;-73
2021/07/13 03:34:53;;;;;;;12.73;11.52;;;21.30;99.90;;;;;;5069730;28;20264;-73
2021/07/13 03:37:21;;;;;;;13.07;11.90;;;21.30;99.90;;;;;;5070615;28;20750;-73
2021/07/13 03:39:49;;;;;;;12.03;11.13;;;21.30;99.90;;;;;;5070956;28;20212;-73
2021/07/13 03:42:17;;;;;;;13.07;11.87;;;21.30;99.90;;;;;;5070936;28;20204;-73
2021/07/13 03:44:45;;;;;;;12.13;11.13;;;21.30;99.90;;;;;;5070727;28;20208;-73
2021/07/13 03:47:13;;;;;;;12.77;11.77;;;21.30;99.90;;;;;;5070873;28;20253;-73
2021/07/13 03:49:40;;;;;;;12.90;11.80;;;21.30;99.90;;;;;;5070744;28;20242;-73
2021/07/13 03:52:08;;;;;;;12.17;11.17;;;21.30;99.90;;;;;;5070773;28;20257;-73
2021/07/13 03:54:34;;;;;;;13.47;12.27;;;21.30;99.90;;;;;;5070770;28;20208;-73
2021/07/13 03:57:01;;;;;;;12.70;11.60;;;21.30;99.90;;;;;;5070691;28;20260;-73
2021/07/13 03:59:28;;;;;;;13.03;11.90;;;21.30;99.90;;;;;;5070602;28;20419;-73
2021/07/13 04:01:56;;;;;;;12.50;11.40;;;21.30;99.90;;;;;;5070640;28;20226;-73
2021/07/13 04:04:22;;;;;;;12.30;11.30;;;21.30;99.90;;;;;;5070549;28;20211;-73
2021/07/13 04:06:49;;;;;;;12.27;11.37;;;21.30;99.90;;;;;;5070161;28;20246;-73
2021/07/13 04:09:16;;;;;;;12.93;11.63;;;21.40;99.90;;;;;;5069968;28;20259;-73
2021/07/13 04:11:44;;;;;;;12.77;11.77;;;21.30;99.90;;;;;;5070078;28;20625;-73
2021/07/13 04:14:11;;;;;;;12.47;11.20;;;21.40;99.90;;;;;;5070283;28;20204;-73
2021/07/13 04:16:38;;;;;;;12.93;11.73;;;21.30;99.90;;;;;;5070392;28;20200;-73
2021/07/13 04:19:06;;;;;;;12.53;11.37;;;21.30;99.90;;;;;;5070321;28;20249;-73
2021/07/13 04:21:33;;;;;;;13.18;11.85;;;21.40;99.90;;;;;;5069795;28;20628;-73
2021/07/13 04:23:59;;;;;;;12.87;11.80;;;21.40;99.90;;;;;;5070211;28;20233;-73
2021/07/13 04:26:26;;;;;;;11.33;10.43;;;21.40;99.90;;;;;;5070309;28;20261;-73
2021/07/13 04:28:53;;;;;;;12.10;10.93;;;21.40;99.90;;;;;;5070126;28;20253;-73
2021/07/13 04:31:20;;;;;;;12.47;11.40;;;21.40;99.90;;;;;;5069821;28;20266;-73
2021/07/13 04:33:47;;;;;;;12.97;11.87;;;21.40;99.90;;;;;;5069567;28;20666;-73
2021/07/13 04:36:15;;;;;;;13.03;11.73;;;21.40;99.90;;;;;;5069540;28;20203;-73
2021/07/13 04:38:42;;;;;;;12.53;10.87;;;21.40;99.90;;;;;;5070039;28;20211;-74
2021/07/13 04:41:08;;;;;;;12.17;11.13;;;21.40;99.90;;;;;;5069543;28;20218;-73
2021/07/13 04:43:35;;;;;;;11.87;10.97;;;21.50;99.90;;;;;;5069472;28;20670;-73
2021/07/13 04:46:02;;;;;;;12.80;11.63;;;21.50;99.90;;;;;;5069655;28;20247;-73
2021/07/13 04:48:28;;;;;;;12.73;11.45;;;21.40;99.90;;;;;;5069685;28;20657;-73
2021/07/13 04:50:55;;;;;;;12.43;11.27;;;21.40;99.90;;;;;;5069547;28;20223;-73
2021/07/13 04:53:23;;;;;;;12.63;11.57;;;21.30;99.90;;;;;;5069690;28;20207;-73
2021/07/13 04:55:49;;;;;;;13.23;12.00;;;21.30;99.90;;;;;;5069645;28;20257;-73
2021/07/13 04:58:16;;;;;;;12.63;11.17;;;21.40;99.90;;;;;;5069517;28;20208;-73
2021/07/13 05:00:42;;;;;;;12.73;11.63;;;21.40;99.90;;;;;;5069578;28;20203;-73
2021/07/13 05:03:09;;;;;;;11.80;10.77;;;21.40;99.90;;;;;;5069338;28;20234;-73
2021/07/13 05:05:36;;;;;;;11.60;10.55;;;21.40;99.90;;;;;;5069403;28;20234;-73
2021/07/13 05:08:02;;;;;;;12.10;11.10;;;21.50;99.90;;;;;;5069233;28;20208;-73
2021/07/13 05:10:30;;;;;;;11.35;10.35;;;21.50;99.90;;;;;;5068683;28;20619;-73
2021/07/13 05:12:57;;;;;;;11.27;10.37;;;21.60;99.90;;;;;;5069023;28;20207;-73
2021/07/13 05:15:23;;;;;;;10.87;9.93;;;21.60;99.90;;;;;;5069021;28;20203;-73
2021/07/13 05:17:50;;;;;;;10.55;9.70;;;21.60;99.90;;;;;;5069225;28;20234;-73
2021/07/13 05:20:17;;;;;;;12.30;9.97;;;21.60;99.90;;;;;;5068859;28;20211;-73
2021/07/13 05:22:45;;;;;;;10.68;9.63;;;21.60;99.90;;;;;;5068675;28;20556;-73
2021/07/13 05:25:14;;;;;;;10.97;9.97;;;21.70;99.90;;;;;;5068517;28;20712;-73
2021/07/13 05:27:43;;;;;;;10.45;9.57;;;21.80;99.90;;;;;;5067781;28;20641;-74
2021/07/13 05:30:12;;;;;;;11.40;9.27;;;21.80;99.90;;;;;;5068477;28;20277;-73
2021/07/13 05:32:38;;;;;;;9.93;9.13;;;21.90;99.90;;;;;;5068410;28;20203;-73
2021/07/13 05:35:07;;;;;;;10.68;9.70;;;21.90;99.90;;;;;;5068486;28;20245;-74
2021/07/13 05:37:34;;;;;;;9.90;9.00;;;22.00;99.90;;;;;;5068673;28;20239;-73
2021/07/13 05:40:01;;;;;;;8.95;8.35;;;22.00;99.90;;;;;;5068720;28;20256;-73
2021/07/13 05:42:28;;;;;;;9.32;8.43;;;22.00;99.90;;;;;;5068614;28;20273;-73
2021/07/13 05:44:56;;;;;;;9.43;8.50;;;22.10;99.90;;;;;;5068601;28;20277;-73
2021/07/13 05:47:23;;;;;;;9.75;8.95;;;22.10;99.90;;;;;;5067926;28;20214;-73
2021/07/13 05:49:49;;;;;;;10.98;9.88;;;22.20;99.90;;;;;;5068151;28;20681;-73
2021/07/13 05:52:16;;;;;;;10.43;9.52;;;22.20;99.90;;;;;;5068419;28;20284;-74
2021/07/13 05:54:42;;;;;;;9.63;8.82;;;22.20;99.90;;;;;;5068723;28;20229;-73
2021/07/13 05:57:09;;;;;;;10.20;9.23;;;22.20;99.90;;;;;;5068507;28;20203;-73
2021/07/13 05:59:36;;;;;;;10.02;9.18;;;22.30;99.90;;;;;;5068491;28;20753;-74
2021/07/13 06:02:04;;;;;;;9.52;8.63;;;22.30;99.90;;;;;;5068589;28;20200;-73
2021/07/13 06:04:31;;;;;;;11.23;8.82;;;22.30;99.90;;;;;;5068610;28;20211;-74
2021/07/13 06:06:57;;;;;;;11.07;9.13;;;22.40;99.90;;;;;;5068526;28;20204;-73
2021/07/13 06:09:27;;;;;;;8.60;7.80;;;22.40;99.90;;;;;;5067909;28;20243;-73
2021/07/13 06:11:53;;;;;;;9.65;8.93;;;22.40;99.90;;;;;;5068283;28;20242;-73
2021/07/13 06:14:20;;;;;;;8.30;7.50;;;22.40;99.90;;;;;;5068537;28;20355;-73
2021/07/13 06:16:47;;;;;;;8.27;7.55;;;22.50;99.90;;;;;;5068215;28;20247;-73
2021/07/13 06:19:15;;;;;;;9.85;8.95;;;22.50;99.90;;;;;;5068241;28;20233;-73
2021/07/13 06:21:41;;;;;;;8.45;7.32;;;22.50;99.90;;;;;;5067976;28;20226;-73
2021/07/13 06:24:08;;;;;;;10.63;9.60;;;22.50;99.90;;;;;;5067847;28;20738;-73
2021/07/13 06:26:35;;;;;;;8.10;7.50;;;22.50;99.90;;;;;;5068309;28;20260;-73
2021/07/13 06:29:01;;;;;;;7.68;7.00;;;22.60;99.90;;;;;;5068191;28;20212;-73
2021/07/13 06:31:28;;;;;;;7.60;7.10;;;22.60;99.90;;;;;;5068076;28;20231;-73
2021/07/13 06:33:55;;;;;;;7.57;6.82;;;22.60;99.90;;;;;;5068243;28;20257;-73
2021/07/13 06:36:23;;;;;;;7.57;6.95;;;22.70;99.90;;;;;;5067616;28;20666;-73
2021/07/13 06:38:49;;;;;;;7.45;6.95;;;22.70;99.90;;;;;;5068124;28;20338;-73
2021/07/13 06:41:16;;;;;;;8.73;8.00;;;22.70;99.90;;;;;;5067614;28;20665;-73
2021/07/13 06:43:42;;;;;;;8.25;7.57;;;22.80;99.90;;;;;;5068198;28;20235;-73
2021/07/13 06:46:09;;;;;;;7.10;6.63;;;22.80;99.90;;;;;;5067844;28;20630;-73
2021/07/13 06:48:36;;;;;;;8.80;7.20;;;22.80;99.90;;;;;;5067734;28;20204;-73
2021/07/13 06:51:02;;;;;;;6.50;5.90;;;22.90;99.90;;;;;;5067547;28;20780;-73
2021/07/13 06:53:30;;;;;;;6.90;5.88;;;22.90;99.90;;;;;;5067702;28;20624;-73
2021/07/13 06:55:57;;;;;;;7.63;7.13;;;23.00;99.90;;;;;;5067863;28;20203;-73
2021/07/13 06:58:23;;;;;;;6.50;6.00;;;23.00;99.90;;;;;;5068348;28;20207;-73
2021/07/13 07:00:53;;;;;;;6.38;5.40;;;23.00;99.90;;;;;;5071844;28;20564;-73
2021/07/13 07:03:20;;;;;;;5.43;4.95;;;23.00;99.90;;;;;;5071688;28;20212;-73
2021/07/13 07:05:46;;;;;;;5.28;4.90;;;23.10;99.90;;;;;;5071582;28;20203;-73
2021/07/13 07:08:13;;;;;;;6.50;4.22;;;23.00;99.90;;;;;;5071625;28;20320;-73
2021/07/13 07:10:41;;;;;;;6.97;6.40;;;23.10;99.90;;;;;;5071523;28;20231;-73
2021/07/13 07:13:08;;;;;;;5.95;5.50;;;23.10;99.90;;;;;;5071588;28;20211;-73
2021/07/13 07:15:34;;;;;;;5.90;5.30;;;23.10;99.90;;;;;;5071708;28;20285;-73
2021/07/13 07:18:01;;;;;;;4.90;4.40;;;23.20;99.90;;;;;;5071766;28;20584;-73
2021/07/13 07:20:30;;;;;;;4.97;4.53;;;23.20;99.90;;;;;;5071224;28;20211;-73
2021/07/13 07:22:58;;;;;;;5.32;4.82;;;23.20;99.90;;;;;;5071469;28;20208;-73
2021/07/13 07:25:27;;;;;;;4.15;3.95;;;23.30;99.90;;;;;;5070805;28;20290;-73
2021/07/13 07:27:56;;;;;;;4.20;3.28;;;23.30;99.90;;;;;;5071243;28;20246;-73
2021/07/13 07:30:24;;;;;;;3.75;3.30;;;23.30;99.90;;;;;;5071088;28;20301;-73
2021/07/13 07:32:52;;;;;;;3.13;2.92;;;23.40;99.90;;;;;;5071203;28;20234;-73
2021/07/13 07:35:19;;;;;;;3.63;3.30;;;23.40;99.90;;;;;;5071027;28;20199;-73
2021/07/13 07:37:47;;;;;;;3.42;3.22;;;23.40;99.90;;;;;;5071083;28;20203;-73
2021/07/13 07:40:17;;;;;;;3.97;3.20;;;23.40;99.90;;;;;;5070641;28;20673;-73
2021/07/13 07:42:45;;;;;;;3.60;3.30;;;23.50;99.90;;;;;;5070995;28;20278;-73
2021/07/13 07:45:13;;;;;;;4.25;3.85;;;23.50;99.90;;;;;;5070802;28;20231;-73
2021/07/13 07:47:40;;;;;;;4.28;3.50;;;23.50;99.90;;;;;;5070555;28;20669;-73
2021/07/13 07:50:08;;;;;;;6.65;3.47;;;23.50;99.90;;;;;;5071086;28;20207;-73
2021/07/13 07:52:35;;;;;;;4.50;3.65;;;23.70;99.90;;;;;;5070954;28;20235;-73
2021/07/13 07:55:03;;;;;;;3.83;3.20;;;23.60;99.90;;;;;;5070575;28;20229;-73
2021/07/13 07:57:30;;;;;;;4.32;3.35;;;23.70;99.90;;;;;;5070166;28;20230;-73
2021/07/13 07:59:56;;;;;;;3.25;3.05;;;23.80;99.90;;;;;;5071037;28;20239;-73
2021/07/13 08:02:24;;;;;;;3.88;2.83;;;23.80;99.90;;;;;;5070541;28;20208;-73
2021/07/13 08:04:51;;;;;;;2.97;2.72;;;23.80;99.90;;;;;;5070707;28;20204;-73
2021/07/13 08:07:18;;;;;;;3.30;3.10;;;23.80;99.90;;;;;;5070374;28;20207;-74
2021/07/13 08:09:45;;;;;;;3.20;3.10;;;23.90;99.90;;;;;;5069802;28;20239;-73
2021/07/13 08:12:12;;;;;;;3.60;3.30;;;23.90;99.90;;;;;;5070421;28;20309;-74
2021/07/13 08:14:38;;;;;;;3.70;3.40;;;23.90;99.90;;;;;;5070524;28;20238;-73
2021/07/13 08:17:05;;;;;;;3.22;3.03;;;23.90;99.90;;;;;;5070331;28;20211;-73
2021/07/13 08:19:38;;;;;;;2.72;2.63;;;24.00;99.90;;;;;;5070035;28;20207;-73
2021/07/13 08:22:05;;;;;;;2.95;2.75;;;24.00;99.90;;;;;;5070262;28;20223;-73
2021/07/13 08:24:32;;;;;;;4.03;2.78;;;24.00;99.90;;;;;;5070118;28;20208;-73
2021/07/13 08:26:58;;;;;;;2.83;2.65;;;24.00;99.90;;;;;;5070266;28;20296;-73
2021/07/13 08:29:25;;;;;;;2.95;2.80;;;24.10;99.90;;;;;;5070100;28;20203;-73
2021/07/13 08:31:56;;;;;;;3.47;2.90;;;24.20;99.90;;;;;;5070144;28;20235;-73
2021/07/13 08:34:23;;;;;;;3.47;3.17;;;24.20;99.90;;;;;;5069874;28;20645;-74
2021/07/13 08:36:51;;;;;;;3.17;2.97;;;24.20;99.90;;;;;;5069831;28;20264;-73
2021/07/13 08:39:17;;;;;;;3.22;2.50;;;24.20;99.90;;;;;;5069981;28;20256;-73
2021/07/13 08:41:45;;;;;;;4.53;3.00;;;24.30;99.90;;;;;;5069926;28;20211;-73
2021/07/13 08:44:11;;;;;;;3.30;3.05;;;24.30;99.90;;;;;;5069664;28;20204;-73
2021/07/13 08:46:38;;;;;;;2.88;2.50;;;24.40;99.90;;;;;;5069839;28;20265;-73
2021/07/13 08:49:07;;;;;;;4.15;2.90;;;24.40;99.90;;;;;;5069717;28;20203;-73
2021/07/13 08:51:34;;;;;;;5.07;3.20;;;24.40;99.90;;;;;;5069553;28;20232;-73
2021/07/13 08:54:02;;;;;;;4.57;2.90;;;24.40;99.90;;;;;;5069460;28;20737;-74
2021/07/13 08:56:29;;;;;;;3.38;3.00;;;24.40;99.90;;;;;;5069324;28;20200;-73
2021/07/13 08:58:55;;;;;;;3.40;3.20;;;24.50;99.90;;;;;;5069504;28;20203;-74
2021/07/13 09:01:22;;;;;;;3.40;3.15;;;24.50;99.90;;;;;;5069455;28;20273;-74
2021/07/13 09:03:56;;;;;;;3.30;3.10;;;24.60;99.90;;;;;;5069569;28;20341;-74
2021/07/13 09:06:24;;;;;;;3.17;2.97;;;24.60;99.90;;;;;;5069231;28;20211;-73
2021/07/13 09:08:51;;;;;;;4.53;3.15;;;24.60;99.90;;;;;;5069009;28;20239;-73
2021/07/13 09:11:21;;;;;;;3.95;3.35;;;24.70;99.90;;;;;;5069263;28;20231;-73
2021/07/13 09:13:49;;;;;;;3.20;3.00;;;24.80;99.90;;;;;;5069323;28;20203;-73
2021/07/13 09:16:18;;;;;;;3.30;3.10;;;24.90;99.90;;;;;;5069095;28;20210;-73
2021/07/13 09:18:46;;;;;;;9.50;3.55;;;25.00;99.90;;;;;;5069206;28;20234;-74
2021/07/13 09:21:17;;;;;;;3.70;3.42;;;25.00;99.90;;;;;;5068002;28;20217;-73
2021/07/13 09:24:06;;;;;;;3.90;3.70;;;25.10;99.90;;;;;;5068895;28;20619;-73
2021/07/13 09:26:39;;;;;;;3.58;3.38;;;25.10;99.90;;;;;;5068930;28;20203;-74
2021/07/13 09:29:06;;;;;;;3.50;3.30;;;25.30;99.90;;;;;;5068880;28;20196;-73
2021/07/13 09:31:33;;;;;;;4.40;3.30;;;25.30;99.90;;;;;;5068737;28;20297;-74
2021/07/13 09:33:59;;;;;;;3.35;3.22;;;25.40;99.90;;;;;;5068745;28;20238;-73
2021/07/13 09:36:26;;;;;;;4.45;3.45;;;25.40;99.90;;;;;;5068452;28;20628;-73
2021/07/13 09:38:54;;;;;;;4.65;3.22;;;25.50;99.90;;;;;;5068706;28;20208;-74
2021/07/13 09:41:23;;;;;;;3.92;3.53;;;25.60;99.90;;;;;;5068797;28;20203;-74
2021/07/13 09:43:53;;;;;;;3.53;3.33;;;25.60;99.90;;;;;;5068523;28;20665;-73
2021/07/13 09:46:25;;;;;;;3.30;3.10;;;25.70;99.90;;;;;;5068144;28;20859;-73
2021/07/13 09:49:23;;;;;;;3.42;3.13;;;25.80;99.90;;;;;;5068465;28;20215;-74
2021/07/13 09:51:56;;;;;;;2.97;2.88;;;25.90;99.90;;;;;;5068270;28;20817;-73
2021/07/13 09:54:37;;;;;;;3.45;3.20;;;25.90;99.90;;;;;;5068324;28;20642;-73
2021/07/13 09:57:07;;;;;;;3.70;3.40;;;26.00;99.90;;;;;;5068454;28;20252;-73
2021/07/13 09:59:35;;;;;;;3.53;3.22;;;26.00;99.90;;;;;;5068360;28;20219;-73
2021/07/13 10:02:04;;;;;;;3.42;3.22;;;26.10;99.90;;;;;;5068447;28;20218;-74
2021/07/13 10:04:31;;;;;;;3.78;3.58;;;26.10;99.90;;;;;;5068027;28;20695;-73
2021/07/13 10:07:04;;;;;;;3.40;3.20;;;26.20;99.90;;;;;;5068267;28;20214;-73
2021/07/13 10:09:34;;;;;;;3.60;3.30;;;26.20;99.90;;;;;;5067788;28;20247;-74
2021/07/13 10:12:00;;;;;;;3.50;3.20;;;26.30;99.90;;;;;;5068326;28;20304;-73
2021/07/13 10:14:28;;;;;;;3.47;3.17;;;26.30;99.90;;;;;;5068326;28;20257;-73
2021/07/13 10:16:57;;;;;;;4.57;3.30;;;26.40;99.90;;;;;;5068303;28;20257;-74
2021/07/13 10:19:24;;;;;;;3.70;3.40;;;26.40;99.90;;;;;;5068248;28;20212;-74
2021/07/13 10:21:53;;;;;;;4.22;3.45;;;26.60;99.90;;;;;;5068338;28;20207;-73
2021/07/13 10:24:24;;;;;;;5.28;3.30;;;26.70;99.90;;;;;;5068116;28;20203;-73
2021/07/13 10:26:52;;;;;;;3.40;3.20;;;26.70;99.90;;;;;;5068353;28;20211;-73
2021/07/13 10:29:43;;;;;;;6.35;3.63;;;26.70;99.90;;;;;;5067930;28;20207;-73
2021/07/13 10:32:32;;;;;;;3.58;3.38;;;26.90;99.90;;;;;;5068499;28;20223;-74
2021/07/13 10:35:02;;;;;;;3.28;3.10;;;27.00;99.90;;;;;;5072449;28;20199;-73
2021/07/13 10:37:31;;;;;;;3.53;3.22;;;27.10;99.90;;;;;;5072412;28;20204;-74
2021/07/13 10:39:59;;;;;;;4.05;3.28;;;27.20;99.90;;;;;;5072301;28;20207;-74
2021/07/13 10:42:47;;;;;;;3.95;3.00;;;27.20;99.90;;;;;;5071944;28;20203;-73
2021/07/13 10:45:17;;;;;;;3.90;2.85;;;27.40;99.90;;;;;;5071963;28;20226;-73
2021/07/13 10:47:58;;;;;;;3.35;3.15;;;27.50;99.90;;;;;;5072037;28;20235;-73
2021/07/13 10:50:53;;;;;;;3.28;3.17;;;27.50;99.90;;;;;;5071459;28;20715;-73
2021/07/13 10:53:31;;;;;;;2.75;2.60;;;27.60;99.90;;;;;;5071647;28;20333;-73
2021/07/13 10:56:03;;;;;;;3.40;3.10;;;27.70;99.90;;;;;;5071976;28;20199;-73
2021/07/13 10:58:36;;;;;;;3.08;2.88;;;27.90;99.90;;;;;;5071605;28;20192;-73
2021/07/13 11:01:06;;;;;;;3.25;3.05;;;28.00;99.90;;;;;;5071775;28;20196;-74
2021/07/13 11:04:06;;;;;;;2.90;2.70;;;28.10;99.90;;;;;;5071794;28;20365;-73
2021/07/13 11:06:57;;;;;;;3.25;3.15;;;28.20;99.90;;;;;;5071572;28;20260;-74
2021/07/13 11:09:32;;;;;;;2.88;2.70;;;28.30;99.90;;;;;;5070988;28;20250;-74
2021/07/13 11:12:10;;;;;;;3.63;3.33;;;28.40;99.90;;;;;;5071561;28;20666;-74
2021/07/13 11:14:55;;;;;;;3.33;2.80;;;28.50;99.90;;;;;;5071217;28;20665;-74
2021/07/13 11:17:23;;;;;;;3.50;3.30;;;28.70;99.90;;;;;;5071668;28;20199;-74
2021/07/13 11:19:52;;;;;;;2.80;2.47;;;28.80;99.90;;;;;;5071564;28;20207;-73
2021/07/13 11:22:19;;;;;;;4.75;4.53;;;29.00;99.90;;;;;;5071460;28;20203;-73
2021/07/13 11:24:46;;;;;;;3.65;3.45;;;28.90;99.90;;;;;;5071368;28;20203;-73
2021/07/13 11:27:13;;;;;;;3.50;3.30;;;28.90;99.90;;;;;;5071353;28;20265;-74
2021/07/13 11:29:50;;;;;;;7.32;4.40;;;28.80;99.90;;;;;;5070950;28;20576;-74
2021/07/13 11:32:17;;;;;;;6.75;3.42;;;28.60;99.90;;;;;;5071155;28;20300;-73
2021/07/13 11:34:44;;;;;;;4.78;3.58;;;28.50;99.90;;;;;;5070839;28;20211;-73
2021/07/13 11:37:12;;;;;;;4.55;3.05;;;28.40;99.90;;;;;;5071072;28;20207;-74
2021/07/13 11:39:39;;;;;;;3.28;2.97;;;28.30;99.90;;;;;;5071071;28;20261;-73
2021/07/13 11:42:09;;;;;;;4.25;3.22;;;28.30;99.90;;;;;;5071069;28;20207;-74
2021/07/13 11:44:37;;;;;;;7.53;2.97;;;28.60;99.90;;;;;;5069776;28;20705;-73
2021/07/13 11:47:08;;;;;;;4.43;3.05;;;28.90;99.90;;;;;;5071063;28;20622;-73
2021/07/13 11:49:35;;;;;;;3.05;2.72;;;29.10;99.90;;;;;;5070903;28;20187;-74
2021/07/13 11:52:03;;;;;;;2.67;2.58;;;29.20;99.50;;;;;;5070754;28;20235;-74
2021/07/13 11:54:32;;;;;;;3.40;3.30;;;29.20;99.20;;;;;;5070559;28;20257;-73
2021/07/13 11:57:00;;;;;;;3.08;2.80;;;29.10;99.00;;;;;;5070734;28;20199;-74
2021/07/13 11:59:29;;;;;;;10.65;3.22;;;29.20;99.20;;;;;;5070367;28;20673;-73
2021/07/13 12:01:58;;;;;;;2.78;2.67;;;29.30;99.60;;;;;;5070291;28;20687;-74
2021/07/13 12:04:27;;;;;;;3.75;2.63;;;29.30;98.80;;;;;;5070489;28;20203;-74
2021/07/13 12:06:55;;;;;;;2.83;2.63;;;29.20;98.70;;;;;;5070745;28;20204;-74
2021/07/13 12:09:27;;;;;;;5.80;3.30;;;29.10;98.70;;;;;;5070058;28;20235;-74
2021/07/13 12:11:56;;;;;;;3.75;3.00;;;29.00;99.10;;;;;;5070591;28;20729;-74
2021/07/13 12:14:25;;;;;;;3.65;2.80;;;29.00;99.50;;;;;;5070440;28;20292;-74
2021/07/13 12:16:54;;;;;;;2.60;2.50;;;28.90;99.10;;;;;;5070409;28;20303;-74
2021/07/13 12:19:24;;;;;;;3.60;2.95;;;29.00;98.90;;;;;;5070518;28;20203;-74
2021/07/13 12:21:52;;;;;;;3.13;2.92;;;29.10;98.00;;;;;;5070189;28;20669;-74
2021/07/13 12:24:21;;;;;;;2.90;2.70;;;29.20;98.20;;;;;;5070352;28;20200;-74
2021/07/13 12:26:49;;;;;;;5.13;3.00;;;29.30;98.00;;;;;;5070562;28;20242;-73
2021/07/13 12:29:19;;;;;;;2.92;2.72;;;29.40;97.90;;;;;;5070342;28;20285;-73
2021/07/13 12:31:58;;;;;;;3.25;3.05;;;29.50;98.20;;;;;;5069917;28;20207;-74
2021/07/13 12:34:26;;;;;;;3.10;2.90;;;29.70;98.10;;;;;;5069734;28;20211;-73
2021/07/13 12:37:05;;;;;;;5.32;3.28;;;29.70;97.90;;;;;;5069545;28;20909;-74
2021/07/13 12:39:32;;;;;;;2.92;2.78;;;29.90;98.20;;;;;;5070005;28;20188;-73
2021/07/13 12:42:01;;;;;;;3.13;2.92;;;30.10;98.00;;;;;;5069815;28;20257;-74
2021/07/13 12:44:37;;;;;;;4.03;3.78;;;30.30;97.50;;;;;;5069599;28;20236;-73
2021/07/13 12:47:30;;;;;;;4.00;3.53;;;30.50;98.00;;;;;;5070039;28;20532;-73